Time;durP1;ratioP1;P1;durP2;ratioP2;P2;SDS_P1;SDS_P2;PMS_P1;PMS_P2;Temp;Humidity;BMP_temperature;BMP_pressure;BME280_temperature;BME280_humidity;BME280_pressure;Samples;Min_cycle;Max_cycle;Signal;HPM_P1;HPM_P2
2021/03/15 00:02:09;;;;;;;18.98;2.67;;;7.30;96.80;;;;;;4823900;29;20434;-76
2021/03/15 00:04:35;;;;;;;8.80;2.20;;;7.40;96.90;;;;;;4807842;29;20215;-77
2021/03/15 00:07:00;;;;;;;10.00;2.20;;;7.40;96.90;;;;;;4823583;29;20053;-77
2021/03/15 00:09:26;;;;;;;8.00;2.20;;;7.40;96.80;;;;;;4823622;29;20527;-79
2021/03/15 00:11:53;;;;;;;17.45;2.33;;;7.30;96.90;;;;;;4825472;29;20034;-77
2021/03/15 00:14:20;;;;;;;13.18;3.08;;;7.30;97.10;;;;;;4807364;29;20057;-77
2021/03/15 00:16:46;;;;;;;10.60;2.55;;;7.30;97.10;;;;;;4823697;29;20107;-77
2021/03/15 00:19:12;;;;;;;11.70;2.88;;;7.40;97.10;;;;;;4807767;29;20431;-77
2021/03/15 00:21:37;;;;;;;15.82;3.20;;;7.40;97.20;;;;;;4807521;29;20045;-77
2021/03/15 00:24:03;;;;;;;13.57;3.08;;;7.40;97.20;;;;;;4825202;29;20045;-77
2021/03/15 00:26:29;;;;;;;8.95;2.53;;;7.30;97.20;;;;;;4807611;29;20107;-76
2021/03/15 00:28:54;;;;;;;12.18;2.90;;;7.40;97.20;;;;;;4807297;29;20039;-77
2021/03/15 00:31:20;;;;;;;11.07;2.70;;;7.40;97.20;;;;;;4823426;29;20034;-76
2021/03/15 00:33:45;;;;;;;12.88;2.53;;;7.40;97.30;;;;;;4823822;29;20054;-76
2021/03/15 00:36:11;;;;;;;17.42;2.88;;;7.30;97.30;;;;;;4823427;29;20031;-74
2021/03/15 00:38:36;;;;;;;16.88;2.75;;;7.30;97.30;;;;;;4824504;29;20031;-76
2021/03/15 00:41:02;;;;;;;17.38;3.03;;;7.30;97.40;;;;;;4822982;29;20099;-77
2021/03/15 00:43:28;;;;;;;15.15;3.15;;;7.30;97.50;;;;;;4823145;29;20038;-75
2021/03/15 00:45:53;;;;;;;9.70;2.60;;;7.30;97.50;;;;;;4807286;29;20047;-75
2021/03/15 00:48:19;;;;;;;12.75;3.25;;;7.40;97.50;;;;;;4823205;29;20037;-77
2021/03/15 00:50:44;;;;;;;11.40;2.22;;;7.20;97.50;;;;;;4808687;29;20026;-77
2021/03/15 00:53:10;;;;;;;17.90;2.95;;;7.20;97.80;;;;;;4822902;29;20389;-76
2021/03/15 00:55:37;;;;;;;12.43;2.13;;;7.30;97.60;;;;;;4822708;29;20209;-76
2021/03/15 00:58:03;;;;;;;12.10;2.72;;;7.40;97.60;;;;;;4823300;29;20117;-77
2021/03/15 01:00:36;;;;;;;11.52;3.05;;;7.30;97.70;;;;;;4822985;29;20036;-77
2021/03/15 01:03:02;;;;;;;15.20;2.80;;;7.30;97.70;;;;;;4824558;29;20082;-76
2021/03/15 01:05:35;;;;;;;15.52;2.13;;;7.30;97.90;;;;;;4806384;29;20046;-77
2021/03/15 01:08:04;;;;;;;13.15;2.28;;;7.20;98.00;;;;;;4822540;29;20099;-77
2021/03/15 01:10:32;;;;;;;8.65;2.45;;;7.30;98.00;;;;;;4821551;29;20031;-78
2021/03/15 01:12:57;;;;;;;;;;;7.20;98.00;;;;;;4823176;29;20474;-77
2021/03/15 01:15:23;;;;;;;13.80;2.20;;;7.30;98.00;;;;;;4822863;29;20324;-78
2021/03/15 01:17:48;;;;;;;7.55;1.80;;;7.30;97.90;;;;;;4824483;29;20030;-76
2021/03/15 01:20:14;;;;;;;6.25;1.90;;;7.20;98.10;;;;;;4822541;29;20425;-76
2021/03/15 01:22:40;;;;;;;10.20;1.80;;;7.20;98.00;;;;;;4806531;29;20073;-77
2021/03/15 01:25:06;;;;;;;7.53;1.60;;;7.20;97.90;;;;;;4822698;29;20335;-76
2021/03/15 01:27:32;;;;;;;8.70;1.35;;;7.30;98.00;;;;;;4822250;29;20107;-76
2021/03/15 01:29:58;;;;;;;9.48;1.75;;;7.30;98.20;;;;;;4823993;29;20461;-77
2021/03/15 01:32:23;;;;;;;6.70;1.55;;;7.30;98.10;;;;;;4822521;29;20056;-76
2021/03/15 01:34:49;;;;;;;5.90;1.85;;;7.40;98.10;;;;;;4822555;29;20102;-76
2021/03/15 01:37:15;;;;;;;11.45;2.33;;;7.30;98.20;;;;;;4822181;29;20042;-78
2021/03/15 01:39:40;;;;;;;9.75;1.98;;;7.20;98.40;;;;;;4822370;29;20133;-77
2021/03/15 01:42:07;;;;;;;5.57;1.73;;;7.30;98.30;;;;;;4823850;29;20049;-76
2021/03/15 01:44:33;;;;;;;6.70;1.88;;;7.40;98.20;;;;;;4822077;29;20529;-77
2021/03/15 01:46:59;;;;;;;5.50;2.22;;;7.30;98.10;;;;;;4822266;29;20045;-77
2021/03/15 01:49:25;;;;;;;5.32;2.08;;;7.20;98.30;;;;;;4806217;29;20489;-75
2021/03/15 01:51:51;;;;;;;6.18;2.05;;;7.20;98.40;;;;;;4822424;29;20403;-74
2021/03/15 01:54:18;;;;;;;11.07;1.80;;;7.20;98.50;;;;;;4805817;29;20034;-75
2021/03/15 01:56:46;;;;;;;8.98;2.22;;;7.20;98.50;;;;;;4807655;29;20026;-76
2021/03/15 01:59:16;;;;;;;5.00;2.15;;;7.10;98.70;;;;;;4821624;29;20054;-76
2021/03/15 02:01:48;;;;;;;9.07;2.38;;;7.20;98.70;;;;;;4805414;29;20064;-76
2021/03/15 02:04:15;;;;;;;3.35;2.00;;;7.20;98.60;;;;;;4821649;29;20069;-76
2021/03/15 02:06:41;;;;;;;6.50;1.90;;;7.10;98.60;;;;;;4820960;29;20041;-76
2021/03/15 02:09:07;;;;;;;6.80;1.70;;;7.10;98.40;;;;;;4822848;29;20664;-77
2021/03/15 02:11:33;;;;;;;4.78;1.73;;;7.10;98.50;;;;;;4821223;29;20138;-76
2021/03/15 02:14:12;;;;;;;4.53;2.22;;;7.10;98.40;;;;;;4820986;29;20061;-78
2021/03/15 02:16:50;;;;;;;1.95;1.25;;;7.10;98.20;;;;;;4804986;29;20050;-76
2021/03/15 02:20:00;;;;;;;3.25;1.67;;;6.90;98.30;;;;;;4821198;29;20254;-76
2021/03/15 02:22:55;;;;;;;2.55;1.35;;;7.00;98.40;;;;;;4820256;29;20373;-77
2021/03/15 02:25:33;;;;;;;2.08;1.50;;;7.00;98.30;;;;;;4820872;29;20043;-74
2021/03/15 02:28:17;;;;;;;;;;;6.90;98.20;;;;;;4821151;29;20035;-76
2021/03/15 02:30:58;;;;;;;3.17;1.50;;;7.00;98.10;;;;;;4820851;29;19913;-76
2021/03/15 02:33:35;;;;;;;2.33;1.00;;;7.00;98.00;;;;;;4820778;29;20087;-77
2021/03/15 02:36:04;;;;;;;2.22;1.38;;;7.00;98.10;;;;;;4821913;29;20335;-79
2021/03/15 02:38:38;;;;;;;1.35;1.13;;;6.90;98.30;;;;;;4820848;29;20043;-77
2021/03/15 02:41:05;;;;;;;1.00;1.00;;;6.90;98.30;;;;;;4820861;29;20502;-77
2021/03/15 02:43:45;;;;;;;1.85;1.00;;;6.90;98.30;;;;;;4820477;29;20050;-78
2021/03/15 02:46:16;;;;;;;2.85;1.10;;;6.80;98.30;;;;;;4820828;29;20089;-77
2021/03/15 02:48:43;;;;;;;1.40;1.00;;;6.80;98.50;;;;;;4804049;29;20042;-76
2021/03/15 02:51:11;;;;;;;1.98;0.80;;;6.70;98.50;;;;;;4821859;29;20030;-78
2021/03/15 02:53:39;;;;;;;1.52;0.82;;;6.70;98.30;;;;;;4820818;29;20481;-77
2021/03/15 02:56:09;;;;;;;;;;;6.70;98.40;;;;;;4821034;29;20106;-76
2021/03/15 02:58:36;;;;;;;0.77;0.57;;;6.60;98.30;;;;;;4820389;29;19912;-75
2021/03/15 03:01:03;;;;;;;0.80;0.80;;;6.50;98.40;;;;;;4820542;29;20482;-75
2021/03/15 03:03:32;;;;;;;0.88;0.60;;;6.40;98.50;;;;;;4785103;29;570621;-75
2021/03/15 03:05:59;;;;;;;0.80;0.75;;;6.40;98.90;;;;;;4822841;29;20417;-75
2021/03/15 03:08:25;;;;;;;0.75;0.75;;;6.40;98.90;;;;;;4821236;29;20049;-75
2021/03/15 03:10:52;;;;;;;0.95;0.80;;;6.40;98.80;;;;;;4804793;29;20035;-76
2021/03/15 03:13:21;;;;;;;0.80;0.80;;;6.40;98.80;;;;;;4820768;29;20066;-76
2021/03/15 03:15:48;;;;;;;1.52;1.10;;;6.30;98.80;;;;;;4804980;29;20057;-77
2021/03/15 03:18:15;;;;;;;0.70;0.70;;;6.60;99.00;;;;;;4804450;29;20117;-77
2021/03/15 03:20:43;;;;;;;1.40;0.97;;;6.40;98.70;;;;;;4822368;29;20035;-76
2021/03/15 03:23:10;;;;;;;0.98;0.88;;;6.60;98.80;;;;;;4820915;29;20266;-76
2021/03/15 03:25:36;;;;;;;0.95;0.88;;;6.50;98.80;;;;;;4820717;29;20034;-76
2021/03/15 03:28:04;;;;;;;1.50;1.00;;;6.40;99.00;;;;;;4820855;29;20465;-77
2021/03/15 03:30:32;;;;;;;1.10;1.00;;;6.50;98.90;;;;;;4820875;29;20400;-77
2021/03/15 03:33:01;;;;;;;1.10;1.00;;;6.60;98.90;;;;;;4822702;29;20031;-76
2021/03/15 03:35:27;;;;;;;0.93;0.85;;;6.70;98.80;;;;;;4808301;29;20123;-77
2021/03/15 03:37:54;;;;;;;1.40;1.20;;;6.70;98.70;;;;;;4808605;29;20474;-76
2021/03/15 03:40:20;;;;;;;1.23;1.10;;;6.60;98.60;;;;;;4824247;29;20474;-77
2021/03/15 03:42:45;;;;;;;1.50;1.35;;;6.60;98.70;;;;;;4824322;29;20049;-77
2021/03/15 03:45:12;;;;;;;1.48;1.33;;;6.50;98.80;;;;;;4824138;29;20058;-75
2021/03/15 03:47:39;;;;;;;2.70;1.50;;;6.50;98.70;;;;;;4825698;29;20037;-77
2021/03/15 03:50:12;;;;;;;1.40;1.20;;;6.40;99.00;;;;;;4808326;29;20610;-76
2021/03/15 03:52:44;;;;;;;3.80;1.70;;;6.60;98.80;;;;;;4824210;29;20075;-77
2021/03/15 03:55:14;;;;;;;1.55;1.30;;;6.50;98.70;;;;;;4824232;29;20072;-75
2021/03/15 03:57:43;;;;;;;2.85;1.92;;;6.40;99.00;;;;;;4824075;29;20038;-76
2021/03/15 04:00:12;;;;;;;2.00;1.80;;;6.30;99.10;;;;;;4825309;29;20038;-76
2021/03/15 04:02:47;;;;;;;3.22;2.10;;;6.20;99.00;;;;;;4823973;29;20473;-76
2021/03/15 04:05:19;;;;;;;3.00;2.10;;;6.30;99.20;;;;;;4823829;29;20058;-76
2021/03/15 04:07:48;;;;;;;2.85;2.00;;;6.40;99.10;;;;;;4823747;29;20038;-77
2021/03/15 04:10:14;;;;;;;2.25;2.05;;;6.50;98.90;;;;;;4823950;29;20450;-76
2021/03/15 04:12:48;;;;;;;3.03;2.40;;;6.40;99.20;;;;;;4823905;29;20038;-76
2021/03/15 04:15:15;;;;;;;2.40;2.13;;;6.50;99.10;;;;;;4823670;29;20034;-78
2021/03/15 04:17:42;;;;;;;3.30;2.42;;;6.50;99.10;;;;;;4825182;29;20031;-77
2021/03/15 04:20:12;;;;;;;3.85;2.97;;;6.60;99.10;;;;;;4823658;29;20039;-77
2021/03/15 04:22:45;;;;;;;3.42;2.58;;;6.60;99.10;;;;;;4807568;29;20563;-78
2021/03/15 04:25:11;;;;;;;4.90;2.83;;;6.60;99.20;;;;;;4823802;29;20046;-78
2021/03/15 04:27:38;;;;;;;2.92;2.42;;;6.50;99.10;;;;;;4823488;29;20035;-77
2021/03/15 04:30:05;;;;;;;3.53;2.30;;;6.60;99.00;;;;;;4808954;29;20095;-77
2021/03/15 04:32:31;;;;;;;4.43;2.25;;;6.60;99.10;;;;;;4823270;29;20777;-76
2021/03/15 04:34:58;;;;;;;3.28;2.65;;;6.60;99.10;;;;;;4823288;29;20054;-76
2021/03/15 04:37:26;;;;;;;4.78;3.22;;;6.60;99.20;;;;;;4823276;29;20050;-77
2021/03/15 04:39:53;;;;;;;4.45;2.65;;;6.60;99.50;;;;;;4823519;29;20042;-77
2021/03/15 04:42:20;;;;;;;4.22;3.08;;;6.80;99.20;;;;;;4823419;29;20022;-77
2021/03/15 04:44:46;;;;;;;3.80;2.85;;;6.60;99.10;;;;;;4808827;29;20395;-76
2021/03/15 04:47:13;;;;;;;3.80;2.85;;;6.70;99.10;;;;;;4823299;29;20162;-78
2021/03/15 04:49:40;;;;;;;5.38;3.00;;;6.50;99.30;;;;;;4822914;29;20065;-77
2021/03/15 04:52:06;;;;;;;5.88;3.08;;;6.60;99.50;;;;;;4807141;29;20023;-78
2021/03/15 04:54:32;;;;;;;3.45;2.80;;;6.70;99.40;;;;;;4806927;29;20457;-77
2021/03/15 04:56:59;;;;;;;3.95;3.03;;;6.70;99.30;;;;;;4808283;29;20058;-78
2021/03/15 04:59:27;;;;;;;4.65;3.10;;;6.70;99.30;;;;;;4807077;29;20043;-78
2021/03/15 05:01:54;;;;;;;4.22;2.70;;;6.70;99.30;;;;;;4822820;29;20118;-77
2021/03/15 05:04:22;;;;;;;5.15;3.42;;;6.80;99.40;;;;;;4822700;29;20054;-76
2021/03/15 05:06:49;;;;;;;7.50;3.58;;;6.90;99.30;;;;;;4822602;29;20034;-77
2021/03/15 05:09:16;;;;;;;4.70;3.28;;;6.90;99.40;;;;;;4822555;29;20031;-75
2021/03/15 05:11:43;;;;;;;3.95;3.28;;;6.80;99.60;;;;;;4808266;29;20038;-76
2021/03/15 05:14:09;;;;;;;4.85;3.10;;;6.80;99.40;;;;;;4822829;29;20440;-77
2021/03/15 05:16:43;;;;;;;4.60;3.20;;;6.90;99.40;;;;;;4806611;29;20525;-77
2021/03/15 05:19:11;;;;;;;7.63;3.50;;;6.80;99.50;;;;;;4806586;29;20434;-75
2021/03/15 05:21:39;;;;;;;5.90;3.97;;;6.80;99.50;;;;;;4822334;29;20095;-76
2021/03/15 05:24:06;;;;;;;7.03;3.92;;;6.90;99.50;;;;;;4807907;29;20026;-79
2021/03/15 05:26:33;;;;;;;5.03;3.53;;;7.00;99.40;;;;;;4822061;29;20138;-77
2021/03/15 05:29:01;;;;;;;6.77;4.40;;;6.90;99.30;;;;;;4806552;29;20399;-77
2021/03/15 05:31:29;;;;;;;6.85;3.88;;;7.00;99.30;;;;;;4822458;29;20361;-76
2021/03/15 05:33:56;;;;;;;6.13;3.67;;;6.90;99.50;;;;;;4822711;29;20022;-76
2021/03/15 05:36:23;;;;;;;6.85;4.03;;;6.80;99.60;;;;;;4806377;29;20058;-75
2021/03/15 05:38:49;;;;;;;6.25;3.90;;;6.80;99.60;;;;;;4823731;29;20031;-75
2021/03/15 05:41:16;;;;;;;9.88;4.57;;;6.80;99.70;;;;;;4822359;29;20031;-77
2021/03/15 05:43:42;;;;;;;9.35;4.78;;;6.90;99.80;;;;;;4806391;29;20520;-77
2021/03/15 05:46:07;;;;;;;6.55;4.30;;;6.90;99.80;;;;;;4806266;29;20064;-77
2021/03/15 05:49:00;;;;;;;7.28;4.43;;;7.00;99.70;;;;;;4806064;29;20121;-78
2021/03/15 05:51:44;;;;;;;8.75;5.40;;;7.00;99.60;;;;;;4822129;29;20031;-78
2021/03/15 05:54:54;;;;;;;8.18;4.53;;;7.00;99.70;;;;;;4823770;29;20018;-79
2021/03/15 05:57:46;;;;;;;6.65;4.18;;;6.80;99.70;;;;;;4821248;29;20042;-76
2021/03/15 06:00:54;;;;;;;6.40;4.38;;;6.90;99.90;;;;;;4805860;29;20035;-78
2021/03/15 06:03:43;;;;;;;9.45;4.60;;;6.90;99.90;;;;;;4821964;29;20450;-77
2021/03/15 06:06:16;;;;;;;6.75;4.35;;;6.90;99.80;;;;;;4823921;29;20054;-77
2021/03/15 06:08:45;;;;;;;6.57;3.90;;;7.00;99.90;;;;;;4806043;29;20038;-77
2021/03/15 06:11:12;;;;;;;3.70;3.20;;;6.80;99.90;;;;;;4821752;29;20087;-77
2021/03/15 06:13:40;;;;;;;7.93;3.45;;;6.80;99.80;;;;;;4821750;29;20055;-78
2021/03/15 06:16:07;;;;;;;4.70;3.27;;;6.80;99.70;;;;;;4821994;29;20047;-77
2021/03/15 06:18:33;;;;;;;7.47;3.63;;;6.90;99.60;;;;;;4820719;29;20042;-78
2021/03/15 06:20:59;;;;;;;4.85;2.90;;;6.90;99.50;;;;;;4823199;29;20055;-76
2021/03/15 06:23:29;;;;;;;4.53;2.60;;;6.90;99.40;;;;;;4805565;29;20042;-77
2021/03/15 06:25:55;;;;;;;3.95;2.67;;;6.90;99.40;;;;;;4805542;29;20358;-78
2021/03/15 06:28:22;;;;;;;3.92;2.55;;;6.80;99.40;;;;;;4805120;29;20042;-78
2021/03/15 06:30:53;;;;;;;5.50;2.70;;;6.90;99.20;;;;;;4822289;29;20067;-77
2021/03/15 06:33:20;;;;;;;4.10;2.65;;;6.80;99.40;;;;;;4821848;29;20323;-80
2021/03/15 06:35:54;;;;;;;4.00;2.58;;;6.80;99.40;;;;;;4823644;29;20063;-79
2021/03/15 06:38:22;;;;;;;3.35;2.30;;;6.70;99.30;;;;;;4822005;29;20311;-79
2021/03/15 06:40:48;;;;;;;5.07;2.65;;;6.80;99.30;;;;;;4805630;29;20081;-82
2021/03/15 06:43:15;;;;;;;4.03;2.95;;;6.90;99.20;;;;;;4821721;29;20505;-78
2021/03/15 06:45:45;;;;;;;3.60;2.65;;;6.90;99.20;;;;;;4805093;29;20057;-78
2021/03/15 06:48:12;;;;;;;6.13;2.72;;;6.90;99.00;;;;;;4804631;29;20030;-76
2021/03/15 06:50:37;;;;;;;5.35;2.75;;;6.80;99.10;;;;;;4806399;29;20426;-76
2021/03/15 06:53:06;;;;;;;9.30;2.92;;;6.90;99.20;;;;;;4805164;29;20053;-85
2021/03/15 06:55:49;;;;;;;3.95;2.67;;;6.80;99.20;;;;;;4822943;29;20103;-81
2021/03/15 06:58:18;;;;;;;4.85;2.55;;;6.80;99.30;;;;;;4805921;29;20038;-80
2021/03/15 07:00:47;;;;;;;5.10;2.70;;;6.90;99.30;;;;;;4821281;29;20430;-78
2021/03/15 07:03:23;;;;;;;8.00;3.03;;;7.10;99.20;;;;;;4822811;29;20092;-82
2021/03/15 07:05:56;;;;;;;7.38;3.50;;;7.00;99.00;;;;;;4824255;29;20046;-81
2021/03/15 07:08:23;;;;;;;6.93;2.92;;;7.20;98.90;;;;;;4822180;29;20093;-83
2021/03/15 07:10:49;;;;;;;9.82;3.72;;;7.10;98.80;;;;;;4822837;29;20520;-83
2021/03/15 07:13:17;;;;;;;10.00;3.30;;;7.00;99.00;;;;;;4805522;29;20073;-83
2021/03/15 07:15:44;;;;;;;5.80;2.65;;;7.10;99.00;;;;;;4804849;29;20431;-81
2021/03/15 07:18:14;;;;;;;5.90;2.83;;;7.20;98.90;;;;;;4822454;29;20037;-76
2021/03/15 07:20:48;;;;;;;5.40;3.22;;;7.20;98.80;;;;;;4815031;29;20042;-84
2021/03/15 07:23:15;;;;;;;5.75;2.88;;;7.10;98.90;;;;;;4787886;29;20043;-84
2021/03/15 07:25:41;;;;;;;11.02;3.60;;;7.10;98.90;;;;;;4803682;29;20162;-83
2021/03/15 07:28:08;;;;;;;9.18;3.53;;;6.90;99.10;;;;;;4802846;29;20050;-83
2021/03/15 07:30:40;;;;;;;5.38;2.63;;;7.10;99.20;;;;;;4802831;29;20031;-82
2021/03/15 07:33:15;;;;;;;8.90;3.08;;;7.30;99.10;;;;;;4806687;29;20023;-82
2021/03/15 07:35:41;;;;;;;10.57;3.20;;;7.30;99.00;;;;;;4803675;29;20043;-82
2021/03/15 07:38:08;;;;;;;11.13;4.60;;;7.10;99.00;;;;;;4802788;29;20183;-82
2021/03/15 07:40:37;;;;;;;10.80;3.40;;;7.20;99.30;;;;;;4802412;29;20050;-82
2021/03/15 07:43:14;;;;;;;7.78;3.55;;;7.40;99.20;;;;;;4802363;29;20042;-84
2021/03/15 07:45:46;;;;;;;6.82;3.35;;;7.60;99.00;;;;;;4788830;29;20362;-84
2021/03/15 07:48:16;;;;;;;7.07;2.88;;;7.70;98.70;;;;;;4787105;29;20153;-82
2021/03/15 07:51:03;;;;;;;8.27;3.30;;;7.80;98.50;;;;;;4805133;29;20034;-83
2021/03/15 07:53:47;;;;;;;11.93;3.85;;;8.00;98.40;;;;;;4802518;29;20522;-83
2021/03/15 07:56:21;;;;;;;9.13;3.85;;;8.10;98.40;;;;;;4802301;29;20047;-83
2021/03/15 07:58:47;;;;;;;6.47;2.90;;;8.10;97.90;;;;;;4802643;29;20649;-81
2021/03/15 08:01:14;;;;;;;6.95;3.78;;;8.00;97.90;;;;;;4802290;29;20059;-79
2021/03/15 08:03:41;;;;;;;6.80;3.45;;;8.20;98.20;;;;;;4800717;29;20031;-81
2021/03/15 08:06:09;;;;;;;10.88;3.58;;;8.30;98.00;;;;;;4803957;29;20092;-80
2021/03/15 08:08:34;;;;;;;9.93;3.33;;;8.30;98.00;;;;;;4802591;29;20477;-81
2021/03/15 08:11:01;;;;;;;6.65;3.60;;;8.40;97.80;;;;;;4802076;29;20050;-83
2021/03/15 08:13:36;;;;;;;5.68;2.50;;;8.30;98.00;;;;;;4802356;29;20069;-83
2021/03/15 08:16:02;;;;;;;9.27;3.63;;;8.10;97.90;;;;;;4801768;29;20047;-79
2021/03/15 08:18:30;;;;;;;4.97;2.63;;;8.00;98.00;;;;;;4786000;29;20102;-79
2021/03/15 08:21:04;;;;;;;6.83;3.00;;;8.30;98.20;;;;;;4806470;29;20038;-76
2021/03/15 08:23:32;;;;;;;8.10;3.08;;;8.30;97.90;;;;;;4789292;29;20075;-78
2021/03/15 08:26:03;;;;;;;;;;;8.40;97.90;;;;;;4789607;29;20043;-78
2021/03/15 08:28:31;;;;;;;6.47;2.78;;;8.10;97.70;;;;;;4804005;29;19921;-80
2021/03/15 08:31:01;;;;;;;5.90;2.85;;;8.30;98.10;;;;;;4788707;29;20091;-77
2021/03/15 08:33:27;;;;;;;9.43;3.00;;;8.00;98.10;;;;;;4805112;29;20091;-84
2021/03/15 08:35:54;;;;;;;9.48;3.10;;;8.20;98.30;;;;;;4790731;29;20086;-80
2021/03/15 08:38:29;;;;;;;11.35;3.40;;;8.20;98.20;;;;;;4804689;29;20050;-81
2021/03/15 08:40:56;;;;;;;9.52;3.38;;;8.30;98.30;;;;;;4805193;29;20042;-80
2021/03/15 08:43:23;;;;;;;7.65;2.85;;;8.40;98.10;;;;;;4805462;29;20188;-83
2021/03/15 08:46:04;;;;;;;7.45;3.38;;;8.40;97.80;;;;;;4789299;29;20078;-80
2021/03/15 08:48:38;;;;;;;11.30;3.88;;;8.40;98.00;;;;;;4804526;29;20035;-77
2021/03/15 08:51:05;;;;;;;8.73;2.95;;;8.60;97.90;;;;;;4806131;29;20034;-79
2021/03/15 08:53:37;;;;;;;6.55;3.38;;;8.40;97.70;;;;;;4804833;29;20067;-80
2021/03/15 08:56:12;;;;;;;10.32;3.22;;;8.20;97.90;;;;;;4788987;29;20066;-78
2021/03/15 08:58:42;;;;;;;11.85;3.40;;;8.20;97.80;;;;;;4804642;29;20144;-80
2021/03/15 09:01:19;;;;;;;11.13;3.28;;;8.30;97.70;;;;;;4804334;29;20121;-79
2021/03/15 09:03:57;;;;;;;13.23;3.22;;;8.20;97.50;;;;;;4788531;29;20046;-76
2021/03/15 09:09:01;;;;;;;11.15;3.67;;;8.30;97.50;;;;;;4806551;29;20070;-76
2021/03/15 09:11:40;;;;;;;10.57;3.80;;;8.40;97.70;;;;;;4788465;29;20057;-76
2021/03/15 09:14:20;;;;;;;9.40;4.22;;;8.60;98.00;;;;;;4804768;29;20543;-77
2021/03/15 09:17:11;;;;;;;12.32;3.50;;;8.60;97.50;;;;;;4804322;29;20054;-76
2021/03/15 09:19:39;;;;;;;15.65;3.53;;;8.60;97.30;;;;;;4792379;29;20470;-73
2021/03/15 09:22:24;;;;;;;17.75;3.90;;;8.70;97.50;;;;;;4804171;29;20062;-73
2021/03/15 09:24:55;;;;;;;14.25;4.05;;;8.70;97.50;;;;;;4788615;29;20070;-77
2021/03/15 09:27:27;;;;;;;15.80;4.00;;;8.70;97.40;;;;;;4788105;29;20133;-73
2021/03/15 09:30:05;;;;;;;15.02;4.05;;;8.90;97.60;;;;;;4805742;29;20027;-76
2021/03/15 09:32:32;;;;;;;;;;;8.90;97.50;;;;;;4804125;29;20070;-74
2021/03/15 09:35:01;;;;;;;7.28;3.47;;;8.80;97.30;;;;;;4804468;29;20304;-75
2021/03/15 09:37:28;;;;;;;15.48;3.83;;;9.00;97.40;;;;;;4804708;29;20078;-78
2021/03/15 09:39:55;;;;;;;16.58;3.92;;;8.90;97.50;;;;;;4804103;29;20073;-77
2021/03/15 09:42:21;;;;;;;16.15;3.67;;;8.90;98.00;;;;;;4804195;29;20376;-73
2021/03/15 09:44:47;;;;;;;14.82;3.72;;;8.80;98.20;;;;;;4804334;29;20130;-78
2021/03/15 09:47:21;;;;;;;16.15;3.70;;;8.90;98.40;;;;;;4802895;29;20059;-75
2021/03/15 09:49:47;;;;;;;14.98;3.70;;;8.80;98.50;;;;;;4804185;29;20122;-75
2021/03/15 09:52:21;;;;;;;13.35;3.65;;;8.80;98.50;;;;;;4804128;29;20118;-75
2021/03/15 09:54:50;;;;;;;16.95;3.80;;;8.70;98.80;;;;;;4803773;29;20043;-75
2021/03/15 09:57:17;;;;;;;11.40;3.70;;;8.70;99.10;;;;;;4803757;29;20621;-76
2021/03/15 09:59:43;;;;;;;10.80;3.47;;;8.60;99.30;;;;;;4805540;29;20039;-77
2021/03/15 10:02:09;;;;;;;12.90;3.28;;;8.70;99.20;;;;;;4803638;29;20062;-75
2021/03/15 10:04:40;;;;;;;12.30;3.90;;;8.60;99.30;;;;;;4803233;29;20051;-74
2021/03/15 10:07:08;;;;;;;13.85;3.47;;;8.50;99.30;;;;;;4803425;29;20042;-74
2021/03/15 10:09:40;;;;;;;14.90;4.00;;;8.50;99.40;;;;;;4787485;29;20043;-74
2021/03/15 10:12:27;;;;;;;14.02;3.97;;;8.30;99.90;;;;;;4805084;29;20326;-74
2021/03/15 10:15:05;;;;;;;12.98;3.28;;;8.10;99.90;;;;;;4787605;29;20051;-76
2021/03/15 10:17:31;;;;;;;11.48;3.47;;;8.20;99.90;;;;;;4787543;29;20031;-75
2021/03/15 10:19:56;;;;;;;14.02;3.47;;;8.30;99.90;;;;;;4802211;29;20129;-75
2021/03/15 10:22:23;;;;;;;18.20;3.75;;;8.40;99.90;;;;;;4803446;29;20346;-75
2021/03/15 10:24:51;;;;;;;12.68;4.20;;;8.40;99.90;;;;;;4802812;29;20035;-74
2021/03/15 10:27:25;;;;;;;12.63;3.60;;;8.50;99.90;;;;;;4803329;29;20019;-75
2021/03/15 10:29:56;;;;;;;14.90;3.13;;;8.90;99.90;;;;;;4804722;29;20054;-74
2021/03/15 10:32:27;;;;;;;16.42;3.75;;;9.50;99.60;;;;;;4787179;29;20654;-76
2021/03/15 10:34:58;;;;;;;10.45;3.15;;;10.00;98.70;;;;;;4803045;29;20180;-77
2021/03/15 10:37:27;;;;;;;10.48;2.13;;;9.80;98.30;;;;;;4803088;29;20177;-77
2021/03/15 10:39:54;;;;;;;7.53;2.35;;;9.80;98.00;;;;;;4786658;29;20188;-77
2021/03/15 10:42:21;;;;;;;13.00;2.47;;;9.40;98.20;;;;;;4786901;29;20038;-79
2021/03/15 10:44:48;;;;;;;8.73;2.33;;;9.40;98.60;;;;;;4788476;29;20047;-76
2021/03/15 10:47:15;;;;;;;11.47;2.50;;;9.30;98.60;;;;;;4803229;29;20099;-77
2021/03/15 10:49:42;;;;;;;8.25;2.28;;;9.50;98.90;;;;;;4802880;29;20741;-76
2021/03/15 10:52:24;;;;;;;11.73;3.38;;;9.60;98.60;;;;;;4786873;29;20039;-78
2021/03/15 10:54:50;;;;;;;8.93;2.28;;;10.00;98.30;;;;;;4802948;29;20026;-79
2021/03/15 10:57:20;;;;;;;8.98;2.60;;;10.30;97.60;;;;;;4802557;29;20050;-73
2021/03/15 10:59:48;;;;;;;5.90;2.88;;;10.40;97.40;;;;;;4804337;29;20023;-73
2021/03/15 11:02:22;;;;;;;13.10;3.78;;;10.30;97.20;;;;;;4786917;29;20432;-73
2021/03/15 11:05:06;;;;;;;11.25;2.80;;;10.00;97.20;;;;;;4783678;29;20128;-73
2021/03/15 11:07:37;;;;;;;12.23;2.60;;;9.90;98.00;;;;;;4784709;29;20056;-72
2021/03/15 11:10:21;;;;;;;10.68;1.92;;;9.70;97.80;;;;;;4784357;29;20074;-76
2021/03/15 11:12:52;;;;;;;13.25;2.47;;;10.60;97.20;;;;;;4784422;29;20035;-77
2021/03/15 11:15:20;;;;;;;7.15;1.88;;;11.00;96.70;;;;;;4784619;29;20119;-77
2021/03/15 11:18:06;;;;;;;9.65;3.35;;;11.60;95.30;;;;;;4785997;29;20027;-77
2021/03/15 11:20:53;;;;;;;8.07;3.05;;;11.50;94.40;;;;;;4784050;29;20123;-74
2021/03/15 11:23:31;;;;;;;;;;;12.00;94.20;;;;;;4784756;29;20066;-76
2021/03/15 11:26:11;;;;;;;11.18;1.80;;;11.80;93.30;;;;;;4783996;29;19914;-77
2021/03/15 11:28:40;;;;;;;5.88;1.42;;;11.70;93.50;;;;;;4784199;29;20040;-75
2021/03/15 11:31:11;;;;;;;7.43;1.50;;;11.50;93.50;;;;;;4784264;29;20112;-81
2021/03/15 11:33:37;;;;;;;8.43;1.83;;;11.30;93.80;;;;;;4784271;29;20031;-76
2021/03/15 11:36:16;;;;;;;8.75;1.70;;;11.30;93.80;;;;;;4785916;29;20168;-79
2021/03/15 11:39:06;;;;;;;7.95;1.55;;;11.30;93.80;;;;;;4785007;29;20151;-74
2021/03/15 11:41:37;;;;;;;7.63;1.38;;;11.30;93.40;;;;;;4775379;29;20607;-78
2021/03/15 11:44:02;;;;;;;10.38;1.45;;;11.40;93.70;;;;;;4784855;29;20529;-77
2021/03/15 11:46:28;;;;;;;7.45;2.40;;;11.30;93.40;;;;;;4784313;29;20037;-73
2021/03/15 11:48:54;;;;;;;7.60;1.45;;;12.10;93.60;;;;;;4798205;29;20039;-72
2021/03/15 11:51:20;;;;;;;8.95;1.45;;;12.00;92.40;;;;;;4797949;29;20045;-74
2021/03/15 11:53:46;;;;;;;5.85;1.52;;;12.40;91.50;;;;;;4785457;29;20031;-73
2021/03/15 11:56:13;;;;;;;7.57;1.95;;;12.40;91.50;;;;;;4787211;29;20047;-74
2021/03/15 11:58:39;;;;;;;5.73;1.40;;;12.60;91.70;;;;;;4787722;29;20071;-75
2021/03/15 12:01:07;;;;;;;8.50;1.60;;;12.60;91.30;;;;;;4786786;29;21812;-72
2021/03/15 12:03:33;;;;;;;8.52;1.75;;;12.30;91.60;;;;;;4806103;29;20047;-73
2021/03/15 12:05:59;;;;;;;13.45;1.42;;;12.00;92.00;;;;;;4825252;29;20054;-73
2021/03/15 12:08:26;;;;;;;10.13;1.65;;;11.60;92.40;;;;;;4824818;29;20053;-75
2021/03/15 12:10:53;;;;;;;9.40;1.48;;;11.60;92.50;;;;;;4825168;29;20058;-74
2021/03/15 12:13:19;;;;;;;9.95;1.38;;;11.40;93.40;;;;;;4825077;29;20381;-75
2021/03/15 12:15:45;;;;;;;12.23;1.77;;;11.10;93.60;;;;;;4808271;29;20369;-77
2021/03/15 12:18:11;;;;;;;6.38;1.88;;;10.80;94.00;;;;;;4824784;29;20450;-77
2021/03/15 12:20:38;;;;;;;7.32;1.38;;;10.70;94.20;;;;;;4826228;29;20058;-78
2021/03/15 12:23:04;;;;;;;9.10;2.28;;;10.80;94.30;;;;;;4824775;29;20043;-78
2021/03/15 12:25:31;;;;;;;7.07;1.33;;;10.80;93.80;;;;;;4825027;29;20042;-77
2021/03/15 12:27:57;;;;;;;11.70;1.75;;;11.10;93.70;;;;;;4823567;29;20038;-77
2021/03/15 12:30:22;;;;;;;10.45;1.80;;;11.00;93.80;;;;;;4823238;29;20034;-78
2021/03/15 12:32:50;;;;;;;10.60;1.83;;;11.20;93.50;;;;;;4824764;29;20516;-74
2021/03/15 12:35:16;;;;;;;7.80;1.60;;;11.40;93.40;;;;;;4822810;29;20085;-73
2021/03/15 12:37:42;;;;;;;12.20;1.60;;;11.40;93.00;;;;;;4806925;29;20042;-75
2021/03/15 12:40:08;;;;;;;12.38;2.00;;;11.10;92.30;;;;;;4805576;29;20115;-75
2021/03/15 12:42:34;;;;;;;13.70;2.33;;;10.90;92.40;;;;;;4800583;29;20043;-77
2021/03/15 12:45:00;;;;;;;10.70;2.60;;;11.10;92.60;;;;;;4806376;29;20166;-75
2021/03/15 12:47:26;;;;;;;12.25;1.95;;;10.80;92.00;;;;;;4788396;29;20444;-77
2021/03/15 12:49:51;;;;;;;11.73;2.30;;;10.80;92.10;;;;;;4805017;29;20121;-74
2021/03/15 12:52:20;;;;;;;9.18;1.80;;;10.40;92.50;;;;;;4804942;29;20386;-73
2021/03/15 12:54:45;;;;;;;11.77;2.30;;;10.10;93.60;;;;;;4804318;29;20027;-75
2021/03/15 12:57:13;;;;;;;10.82;1.52;;;9.70;95.40;;;;;;4803700;29;20038;-76
2021/03/15 12:59:39;;;;;;;11.18;1.83;;;9.60;96.50;;;;;;4806222;29;20375;-74
2021/03/15 13:02:04;;;;;;;12.38;1.77;;;9.80;97.30;;;;;;4804519;29;20600;-76
2021/03/15 13:04:30;;;;;;;10.52;1.80;;;9.90;97.10;;;;;;4804549;29;20066;-75
2021/03/15 13:06:56;;;;;;;14.45;2.30;;;9.90;96.80;;;;;;4804316;29;20049;-74
2021/03/15 13:09:21;;;;;;;7.32;1.73;;;10.00;96.30;;;;;;4804598;29;20469;-72